createdAt,value
2018-07-25T00:01:53.732Z,68.02
2018-07-25T00:04:23.455Z,67.67
2018-07-25T00:06:53.080Z,67.97
2018-07-25T00:09:27.872Z,66.85
2018-07-25T00:11:57.569Z,65.75
2018-07-25T00:14:27.179Z,64.33
2018-07-25T00:16:56.972Z,64.28
2018-07-25T00:19:27.008Z,65.06
2018-07-25T00:21:56.739Z,65.20
2018-07-25T00:24:26.494Z,65.78
2018-07-25T00:26:56.300Z,64.71
2018-07-25T00:29:26.001Z,63.78
2018-07-25T00:31:55.630Z,63.72
2018-07-25T00:34:25.356Z,63.96
2018-07-25T00:36:55.105Z,65.19
2018-07-25T00:39:24.830Z,65.28
2018-07-25T00:41:54.574Z,64.17
2018-07-25T00:44:24.256Z,64.27
2018-07-25T00:46:54.094Z,66.79
2018-07-25T00:49:23.841Z,66.98
2018-07-25T00:51:53.520Z,68.12
2018-07-25T00:54:23.266Z,66.67
2018-07-25T00:56:53.004Z,65.91
2018-07-25T00:59:23.192Z,70.70
2018-07-25T01:01:52.958Z,72.79
2018-07-25T01:04:22.595Z,73.38
2018-07-25T01:06:52.308Z,73.91
2018-07-25T01:09:22.079Z,73.40
2018-07-25T01:11:51.780Z,71.48
2018-07-25T01:14:21.967Z,71.46
2018-07-25T01:16:51.831Z,71.18
2018-07-25T01:19:21.406Z,71.54
2018-07-25T01:21:51.029Z,71.20
2018-07-25T01:24:20.800Z,69.42
2018-07-25T01:26:50.557Z,69.56
2018-07-25T01:29:20.985Z,70.32
2018-07-25T01:31:50.784Z,69.58
2018-07-25T01:34:20.552Z,68.58
2018-07-25T01:36:50.431Z,67.25
2018-07-25T01:39:20.214Z,68.11
2018-07-25T01:41:49.928Z,68.81
2018-07-25T01:44:19.651Z,70.82
2018-07-25T01:46:49.468Z,72.16
2018-07-25T01:49:19.057Z,71.00
2018-07-25T01:51:48.759Z,71.58
2018-07-25T01:54:18.459Z,72.37
2018-07-25T01:56:48.311Z,72.08
2018-07-25T01:59:19.023Z,72.28
2018-07-25T02:01:48.677Z,71.36
2018-07-25T02:04:18.290Z,69.06
2018-07-25T02:06:47.947Z,67.99
2018-07-25T02:09:17.730Z,66.58
2018-07-25T02:11:47.453Z,66.80
2018-07-25T02:14:17.140Z,66.21
2018-07-25T02:16:46.973Z,65.18
2018-07-25T02:19:16.815Z,66.02
2018-07-25T02:21:46.562Z,65.65
2018-07-25T02:24:16.604Z,65.95
2018-07-25T02:26:46.360Z,67.11
2018-07-25T02:29:16.061Z,66.00
2018-07-25T02:31:45.748Z,64.98
2018-07-25T02:34:20.449Z,64.49
2018-07-25T02:36:50.977Z,65.11
2018-07-25T02:39:21.205Z,64.29
2018-07-25T02:41:50.971Z,64.59
2018-07-25T02:44:20.698Z,64.24
2018-07-25T02:46:50.443Z,65.04
2018-07-25T02:49:20.180Z,65.13
2018-07-25T02:51:50.010Z,64.13
2018-07-25T02:54:19.760Z,64.04
2018-07-25T02:56:49.378Z,64.08
2018-07-25T02:59:19.121Z,65.00
2018-07-25T03:01:48.882Z,64.65
2018-07-25T03:04:18.607Z,64.26
2018-07-25T03:06:48.347Z,68.18
2018-07-25T03:09:17.962Z,68.58
2018-07-25T03:11:47.712Z,70.23
2018-07-25T03:14:17.473Z,70.75
2018-07-25T03:16:47.349Z,69.32
2018-07-25T03:19:17.675Z,69.95
2018-07-25T03:21:47.519Z,70.96
2018-07-25T03:24:17.391Z,69.83
2018-07-25T03:26:47.265Z,69.29
2018-07-25T03:29:17.049Z,69.33
2018-07-25T03:31:46.835Z,67.54
2018-07-25T03:34:16.612Z,68.13
2018-07-25T03:36:46.289Z,67.55
2018-07-25T03:39:16.073Z,71.58
2018-07-25T03:41:45.674Z,71.61
2018-07-25T03:44:15.432Z,71.95
2018-07-25T03:46:45.198Z,68.56
2018-07-25T03:49:14.808Z,65.53
2018-07-25T03:51:44.478Z,66.74
2018-07-25T03:54:14.066Z,67.27
2018-07-25T03:56:43.724Z,65.91
2018-07-25T03:59:13.454Z,67.54
2018-07-25T04:01:43.616Z,67.46
2018-07-25T04:04:13.321Z,67.51
2018-07-25T04:06:43.144Z,67.87
2018-07-25T04:09:12.765Z,65.99
2018-07-25T04:11:42.565Z,66.06
2018-07-25T04:14:12.343Z,65.99
2018-07-25T04:16:41.986Z,65.50
2018-07-25T04:19:12.054Z,64.57
2018-07-25T04:21:41.695Z,64.23
2018-07-25T04:24:11.446Z,64.89
2018-07-25T04:26:41.061Z,66.78
2018-07-25T04:29:11.048Z,66.93
2018-07-25T04:31:40.798Z,65.21
2018-07-25T04:34:10.713Z,65.02
2018-07-25T04:36:40.389Z,65.65
2018-07-25T04:39:12.637Z,65.97
2018-07-25T04:41:42.811Z,66.51
2018-07-25T04:44:12.633Z,65.87
2018-07-25T04:46:42.546Z,67.79
2018-07-25T04:49:13.286Z,68.27
2018-07-25T04:51:43.031Z,68.41
2018-07-25T04:54:12.780Z,67.75
2018-07-25T04:56:42.467Z,68.89
2018-07-25T04:59:12.126Z,67.75
2018-07-25T05:01:41.831Z,68.09
2018-07-25T05:04:11.709Z,66.52
2018-07-25T05:06:41.404Z,66.12
2018-07-25T05:09:11.765Z,67.59
2018-07-25T05:11:41.457Z,66.42
2018-07-25T05:14:11.144Z,65.37
2018-07-25T05:16:40.672Z,65.71
2018-07-25T05:19:10.430Z,64.34
2018-07-25T05:21:40.171Z,65.08
2018-07-25T05:24:10.864Z,63.92
2018-07-25T05:26:41.054Z,62.68
2018-07-25T05:29:11.957Z,61.98
2018-07-25T05:31:41.875Z,62.51
2018-07-25T05:34:11.764Z,63.50
2018-07-25T05:36:41.360Z,61.40
2018-07-25T05:39:13.476Z,60.84
2018-07-25T05:41:43.716Z,60.35
2018-07-25T05:44:13.492Z,61.71
2018-07-25T05:46:43.142Z,62.60
2018-07-25T05:49:14.782Z,62.38
2018-07-25T05:51:44.531Z,61.79
2018-07-25T05:54:14.280Z,62.08
2018-07-25T05:56:44.903Z,61.45
2018-07-25T05:59:15.676Z,59.23
2018-07-25T06:01:45.439Z,60.46
2018-07-25T06:04:15.117Z,61.46
2018-07-25T06:06:44.957Z,64.06
2018-07-25T06:09:14.728Z,65.17
2018-07-25T06:11:44.913Z,66.00
2018-07-25T06:14:14.626Z,65.84
2018-07-25T06:16:44.393Z,67.43
2018-07-25T06:19:14.241Z,65.64
2018-07-25T06:21:44.024Z,67.46
2018-07-25T06:24:13.760Z,65.85
2018-07-25T06:26:43.469Z,64.67
2018-07-25T06:29:13.151Z,66.40
2018-07-25T06:31:42.906Z,66.90
2018-07-25T06:34:12.763Z,66.59
2018-07-25T06:36:42.641Z,65.28
2018-07-25T06:39:13.795Z,63.04
2018-07-25T06:41:43.571Z,64.36
2018-07-25T06:44:13.338Z,63.91
2018-07-25T06:46:43.060Z,62.66
2018-07-25T06:49:13.865Z,62.60
2018-07-25T06:51:43.584Z,60.98
2018-07-25T06:54:13.343Z,62.17
2018-07-25T06:56:43.078Z,62.39
2018-07-25T07:02:19.033Z,62.06
2018-07-25T07:04:48.760Z,61.79
2018-07-25T07:07:21.015Z,58.39
2018-07-25T07:09:51.517Z,57.52
2018-07-25T07:12:21.309Z,58.11
2018-07-25T07:14:51.042Z,58.14
2018-07-25T07:17:20.802Z,56.20
2018-07-25T07:19:50.441Z,54.55
2018-07-25T07:22:20.264Z,56.13
2018-07-25T07:24:50.092Z,55.90
2018-07-25T07:27:19.791Z,52.90
2018-07-25T07:29:49.543Z,54.23
2018-07-25T07:32:19.762Z,55.03
2018-07-25T07:34:49.474Z,55.06
2018-07-25T07:37:19.144Z,54.39
2018-07-25T07:39:48.850Z,52.82
2018-07-25T07:42:18.651Z,50.89
2018-07-25T07:44:52.102Z,51.61
2018-07-25T07:47:21.679Z,53.48
2018-07-25T07:49:52.282Z,54.01
2018-07-25T07:52:23.168Z,52.46
2018-07-25T07:54:52.772Z,49.75
2018-07-25T07:57:22.382Z,49.19
2018-07-25T07:59:52.599Z,50.30
2018-07-25T08:02:22.159Z,49.13
2018-07-25T08:04:51.803Z,48.31
2018-07-25T08:07:21.654Z,48.42
2018-07-25T08:09:51.796Z,49.55
2018-07-25T08:12:21.699Z,48.69
2018-07-25T08:14:56.876Z,47.94
2018-07-25T08:17:26.663Z,49.56
2018-07-25T08:19:56.505Z,47.68
2018-07-25T08:22:26.325Z,49.16
2018-07-25T08:24:56.149Z,47.86
2018-07-25T08:27:25.924Z,47.06
2018-07-25T08:29:55.687Z,47.82
2018-07-25T08:32:25.466Z,44.34
2018-07-25T08:34:55.744Z,42.67
2018-07-25T08:37:26.346Z,39.82
2018-07-25T08:39:56.517Z,38.28
2018-07-25T08:42:26.333Z,38.58
2018-07-25T08:44:56.054Z,37.35
2018-07-25T08:47:25.785Z,37.45
2018-07-25T08:49:55.592Z,37.14
2018-07-25T08:52:25.329Z,37.01
2018-07-25T08:54:55.890Z,35.44
2018-07-25T08:57:26.398Z,39.19
2018-07-25T08:59:58.476Z,36.58
2018-07-25T09:02:29.226Z,35.38
2018-07-25T09:04:59.561Z,33.37
2018-07-25T09:07:30.141Z,31.73
2018-07-25T09:10:02.437Z,33.85
2018-07-25T09:12:33.503Z,35.11
2018-07-25T09:15:03.712Z,33.62
2018-07-25T09:17:34.542Z,32.70
2018-07-25T09:20:09.061Z,32.83
2018-07-25T09:22:39.350Z,36.16
2018-07-25T09:25:09.844Z,34.92
2018-07-25T09:27:40.434Z,32.16
2018-07-25T09:30:11.794Z,29.47
2018-07-25T09:32:42.355Z,28.80
2018-07-25T09:35:13.426Z,30.32
2018-07-25T09:37:44.050Z,29.88
2018-07-25T09:40:14.715Z,28.03
2018-07-25T09:42:46.376Z,25.52
2018-07-25T09:45:16.907Z,27.03
2018-07-25T09:48:49.911Z,25.85
2018-07-25T09:51:23.555Z,30.00
2018-07-25T09:53:54.493Z,30.29
2018-07-25T09:56:28.391Z,29.99
2018-07-25T09:58:59.192Z,30.80
2018-07-25T10:01:29.389Z,31.07
2018-07-25T10:03:59.882Z,31.01
2018-07-25T10:06:33.342Z,30.32
2018-07-25T10:09:04.218Z,29.80
2018-07-25T10:11:34.991Z,31.08
2018-07-25T10:14:05.519Z,29.86
2018-07-25T10:16:36.561Z,31.01
2018-07-25T10:19:07.273Z,31.00
2018-07-25T10:21:37.905Z,31.29
2018-07-25T10:24:08.354Z,32.07
2018-07-25T10:26:39.661Z,32.79
2018-07-25T10:29:10.951Z,33.41
2018-07-25T10:31:42.008Z,34.57
2018-07-25T10:34:12.317Z,37.67
2018-07-25T10:36:42.365Z,38.27
2018-07-25T10:39:12.221Z,37.34
2018-07-25T10:41:42.474Z,36.64
2018-07-25T10:44:13.234Z,35.39
2018-07-25T10:46:44.026Z,33.98
2018-07-25T10:49:13.842Z,30.78
2018-07-25T10:51:43.581Z,29.07
2018-07-25T10:54:13.407Z,28.37
2018-07-25T10:56:43.945Z,26.94
2018-07-25T10:59:14.377Z,28.52
2018-07-25T11:01:45.073Z,28.37
2018-07-25T11:04:15.266Z,29.58
2018-07-25T11:06:46.176Z,30.75
2018-07-25T11:12:15.849Z,36.93
2018-07-25T11:14:45.702Z,39.87
2018-07-25T11:17:16.028Z,42.57
2018-07-25T11:19:45.737Z,44.20
2018-07-25T11:22:15.482Z,45.15
2018-07-25T11:24:45.363Z,44.40
2018-07-25T11:27:15.320Z,42.77
2018-07-25T11:29:44.988Z,41.80
2018-07-25T11:32:14.992Z,40.99
2018-07-25T11:34:44.778Z,40.82
2018-07-25T11:37:15.391Z,38.17
2018-07-25T11:39:45.145Z,34.92
2018-07-25T11:42:14.838Z,32.64
2018-07-25T11:44:44.436Z,31.96
2018-07-25T11:47:14.353Z,37.25
2018-07-25T11:49:44.105Z,38.60
2018-07-25T11:52:13.746Z,39.22
2018-07-25T11:54:43.554Z,41.25
2018-07-25T11:57:14.008Z,41.73
2018-07-25T11:59:43.907Z,41.05
2018-07-25T12:02:13.673Z,40.20
2018-07-25T12:04:43.519Z,39.92
2018-07-25T12:07:13.311Z,36.83
2018-07-25T12:09:44.006Z,36.33
2018-07-25T12:12:13.914Z,33.41
2018-07-25T12:14:43.707Z,31.79
2018-07-25T12:17:13.777Z,31.40
2018-07-25T12:19:43.468Z,31.97
2018-07-25T12:22:13.191Z,31.70
2018-07-25T12:24:43.174Z,33.02
2018-07-25T12:27:12.978Z,33.00
2018-07-25T12:29:42.714Z,32.54
2018-07-25T12:32:12.516Z,33.86
2018-07-25T12:34:42.318Z,34.31
2018-07-25T12:37:12.156Z,35.84
2018-07-25T12:39:42.305Z,35.82
2018-07-25T12:42:12.070Z,37.84
2018-07-25T12:44:42.214Z,36.61
2018-07-25T12:47:11.846Z,36.72
2018-07-25T12:49:41.476Z,37.83
2018-07-25T12:52:11.715Z,39.47
2018-07-25T12:54:41.586Z,39.88
2018-07-25T12:57:12.431Z,38.16
2018-07-25T12:59:42.956Z,39.27
2018-07-25T13:02:12.709Z,40.84
2018-07-25T13:04:42.477Z,39.98
2018-07-25T13:07:13.361Z,40.49
2018-07-25T13:09:43.126Z,40.35
2018-07-25T13:12:13.543Z,40.89
2018-07-25T13:14:43.673Z,41.78
2018-07-25T13:17:14.400Z,42.55
2018-07-25T13:19:44.414Z,42.01
2018-07-25T13:22:14.264Z,39.90
2018-07-25T13:24:44.181Z,40.83
2018-07-25T13:27:13.953Z,42.02
2018-07-25T13:29:43.785Z,40.22
2018-07-25T13:32:13.740Z,40.61
2018-07-25T13:34:43.498Z,39.61
2018-07-25T13:37:13.557Z,40.85
2018-07-25T13:39:43.545Z,40.75
2018-07-25T13:42:13.809Z,40.07
2018-07-25T13:44:43.491Z,43.91
2018-07-25T13:47:13.274Z,44.50
2018-07-25T13:49:43.096Z,47.22
2018-07-25T13:52:13.440Z,48.24
2018-07-25T13:54:43.340Z,49.96
2018-07-25T13:57:13.235Z,50.64
2018-07-25T13:59:43.040Z,50.60
2018-07-25T14:02:13.500Z,52.33
2018-07-25T14:04:43.285Z,52.50
2018-07-25T14:07:13.522Z,52.80
2018-07-25T14:09:43.238Z,55.94
2018-07-25T14:12:13.441Z,54.49
2018-07-25T14:14:43.233Z,55.65
2018-07-25T14:17:13.218Z,54.81
2018-07-25T14:19:42.892Z,54.27
2018-07-25T14:22:12.824Z,56.02
2018-07-25T14:24:42.594Z,56.39
2018-07-25T14:27:12.464Z,55.99
2018-07-25T14:29:42.402Z,56.88
2018-07-25T14:32:12.237Z,56.82
2018-07-25T14:34:41.946Z,57.13
2018-07-25T14:37:11.704Z,55.44
2018-07-25T14:39:41.604Z,55.87
2018-07-25T14:42:11.405Z,53.59
2018-07-25T14:44:41.663Z,51.71
2018-07-25T14:47:11.476Z,52.12
2018-07-25T14:49:41.260Z,53.42
2018-07-25T14:52:10.958Z,50.72
2018-07-25T14:54:40.830Z,47.86
2018-07-25T14:57:10.718Z,49.86
2018-07-25T14:59:40.629Z,50.38
2018-07-25T15:02:10.941Z,50.30
2018-07-25T15:04:40.558Z,53.74
2018-07-25T15:07:10.454Z,52.46
2018-07-25T15:09:40.281Z,50.63
2018-07-25T15:12:10.272Z,50.25
2018-07-25T15:14:40.960Z,47.20
2018-07-25T15:17:10.931Z,51.51
2018-07-25T15:19:40.809Z,49.13
2018-07-25T15:22:10.610Z,51.21
2018-07-25T15:24:40.416Z,52.98
2018-07-25T15:27:11.107Z,53.07
2018-07-25T15:29:41.143Z,54.52
2018-07-25T15:32:11.070Z,52.95
2018-07-25T15:34:40.928Z,53.72
2018-07-25T15:37:12.428Z,53.00
2018-07-25T15:39:42.207Z,51.64
2018-07-25T15:42:11.963Z,51.62
2018-07-25T15:44:42.082Z,51.17
2018-07-25T15:47:13.099Z,51.30
2018-07-25T15:49:42.885Z,54.03
2018-07-25T15:52:12.697Z,53.19
2018-07-25T15:54:42.470Z,52.44
2018-07-25T15:57:12.727Z,50.99
2018-07-25T15:59:42.351Z,51.08
2018-07-25T16:02:12.154Z,49.95
2018-07-25T16:04:41.911Z,50.31
2018-07-25T16:07:11.722Z,52.01
2018-07-25T16:09:41.624Z,51.96
2018-07-25T16:12:11.440Z,51.66
2018-07-25T16:14:41.317Z,54.18
2018-07-25T16:17:11.516Z,54.00
2018-07-25T16:19:41.318Z,54.90
2018-07-25T16:22:11.077Z,55.51
2018-07-25T16:24:40.848Z,55.92
2018-07-25T16:27:10.761Z,55.42
2018-07-25T16:29:40.509Z,54.85
2018-07-25T16:32:10.446Z,56.08
2018-07-25T16:34:40.063Z,56.57
2018-07-25T16:37:09.834Z,56.57
2018-07-25T16:39:39.784Z,55.87
2018-07-25T16:42:09.564Z,56.83
2018-07-25T16:44:39.283Z,56.39
2018-07-25T16:47:09.137Z,55.79
2018-07-25T16:49:39.047Z,56.27
2018-07-25T16:52:08.831Z,57.00
2018-07-25T16:54:38.547Z,57.51
2018-07-25T16:57:08.418Z,55.31
2018-07-25T16:59:38.226Z,57.03
2018-07-25T17:02:07.989Z,56.46
2018-07-25T17:04:37.970Z,55.11
2018-07-25T17:07:08.457Z,57.12
2018-07-25T17:09:38.336Z,56.47
2018-07-25T17:12:08.093Z,58.48
2018-07-25T17:14:37.921Z,58.77
2018-07-25T17:17:07.681Z,57.16
2018-07-25T17:19:39.645Z,58.33
2018-07-25T17:22:17.384Z,59.16
2018-07-25T17:24:56.929Z,58.84
2018-07-25T17:27:26.949Z,59.08
2018-07-25T17:30:03.216Z,59.72
2018-07-25T17:32:33.386Z,60.30
2018-07-25T17:35:03.925Z,59.44
2018-07-25T17:40:33.951Z,57.75
2018-07-25T17:43:10.644Z,56.83
2018-07-25T17:45:43.222Z,57.82
2018-07-25T17:48:13.078Z,59.83
2018-07-25T17:50:47.683Z,60.86
2018-07-25T17:53:18.019Z,59.15
2018-07-25T17:55:49.816Z,57.81
2018-07-25T17:58:23.216Z,58.13
2018-07-25T18:00:54.622Z,59.77
2018-07-25T18:03:25.280Z,59.44
2018-07-25T18:05:55.764Z,59.81
2018-07-25T18:08:26.563Z,60.10
2018-07-25T18:10:56.590Z,59.52
2018-07-25T18:13:31.690Z,59.28
2018-07-25T18:16:01.676Z,58.73
2018-07-25T18:18:32.106Z,58.87
2018-07-25T18:21:02.622Z,58.09
2018-07-25T18:23:33.257Z,57.44
2018-07-25T18:26:03.186Z,56.80
2018-07-25T18:28:34.156Z,56.48
2018-07-25T18:31:04.352Z,56.62
2018-07-25T18:33:35.691Z,56.99
2018-07-25T18:36:05.479Z,58.89
2018-07-25T18:38:36.049Z,59.87
2018-07-25T18:41:05.821Z,58.79
2018-07-25T18:43:35.611Z,58.14
2018-07-25T18:46:05.496Z,58.13
2018-07-25T18:51:23.173Z,57.03
2018-07-25T18:56:30.776Z,57.23
2018-07-25T18:59:01.040Z,57.94
2018-07-25T19:01:30.797Z,57.31
2018-07-25T19:04:00.678Z,57.08
2018-07-25T19:06:30.350Z,57.85
2018-07-25T19:09:00.074Z,57.24
2018-07-25T19:11:29.831Z,57.56
2018-07-25T19:14:04.407Z,57.46
2018-07-25T19:19:39.149Z,58.92
2018-07-25T19:22:09.694Z,58.38
2018-07-25T19:24:40.040Z,57.33
2018-07-25T19:53:15.034Z,57.53
2018-07-25T19:55:44.616Z,58.28
2018-07-25T19:58:14.464Z,58.60
2018-07-25T23:44:24.789Z,64.26
2018-07-25T23:46:54.501Z,64.06
2018-07-25T23:49:24.371Z,63.21
2018-07-25T23:51:54.717Z,63.41
2018-07-25T23:54:24.537Z,63.52
2018-07-25T23:56:54.380Z,63.04
2018-07-25T23:59:24.103Z,63.09
